Time;durP1;ratioP1;P1;durP2;ratioP2;P2;SDS_P1;SDS_P2;PMS_P1;PMS_P2;Temp;Humidity;BMP_temperature;BMP_pressure;BME280_temperature;BME280_humidity;BME280_pressure;Samples;Min_cycle;Max_cycle;Signal;HPM_P1;HPM_P2
2021/09/23 00:00:12;;;;;;;15.05;8.02;;;;;;;9.82;100.00;101773.81;4944179;28;20077;-65
2021/09/23 00:03:09;;;;;;;10.95;6.85;;;;;;;9.36;100.00;101781.31;4942081;28;20259;-65
2021/09/23 00:05:37;;;;;;;12.25;6.30;;;;;;;8.86;100.00;101771.31;4942651;28;20085;-65
2021/09/23 00:08:07;;;;;;;19.40;9.52;;;;;;;8.85;100.00;101769.63;4941010;28;20043;-65
2021/09/23 00:10:37;;;;;;;21.48;10.52;;;;;;;9.32;100.00;101757.75;4946185;28;20074;-65
2021/09/23 00:13:06;;;;;;;18.38;10.20;;;;;;;9.80;100.00;101765.94;4946555;28;20044;-65
2021/09/23 00:15:35;;;;;;;22.80;10.85;;;;;;;9.97;100.00;101764.44;4942877;28;20389;-65
2021/09/23 00:18:06;;;;;;;20.20;10.30;;;;;;;10.06;100.00;101759.28;4944141;28;20055;-65
2021/09/23 00:20:37;;;;;;;20.77;10.77;;;;;;;10.28;100.00;101747.53;4947433;28;20054;-65
2021/09/23 00:23:05;;;;;;;16.63;8.48;;;;;;;10.37;100.00;101730.69;4944131;28;20047;-65
2021/09/23 00:25:34;;;;;;;17.38;8.20;;;;;;;10.17;100.00;101725.31;4946449;28;20733;-65
2021/09/23 00:28:05;;;;;;;19.20;8.57;;;;;;;10.29;100.00;101727.84;4943366;28;20055;-65
2021/09/23 00:30:33;;;;;;;18.25;9.10;;;;;;;10.20;100.00;101718.84;4948580;28;20052;-65
2021/09/23 00:33:01;;;;;;;15.85;8.65;;;;;;;10.07;100.00;101723.63;4943261;28;20051;-64
2021/09/23 00:35:29;;;;;;;19.63;9.65;;;;;;;9.79;100.00;101715.41;4940739;28;20043;-65
2021/09/23 00:37:58;;;;;;;18.60;9.57;;;;;;;9.86;100.00;101708.53;4947304;28;20043;-65
2021/09/23 00:40:26;;;;;;;19.67;9.15;;;;;;;10.00;100.00;101708.13;4946508;28;20039;-65
2021/09/23 00:42:55;;;;;;;17.98;9.63;;;;;;;9.92;100.00;101717.81;4947886;28;20043;-65
2021/09/23 00:45:23;;;;;;;18.27;9.43;;;;;;;9.13;100.00;101730.84;4945738;28;20124;-63
2021/09/23 00:47:51;;;;;;;13.20;8.00;;;;;;;8.66;100.00;101735.72;4945623;28;20405;-67
2021/09/23 00:50:22;;;;;;;16.60;8.95;;;;;;;8.44;100.00;101728.63;4945391;28;20043;-64
2021/09/23 00:52:50;;;;;;;20.27;9.18;;;;;;;8.40;100.00;101728.00;4945972;28;20051;-65
2021/09/23 00:55:19;;;;;;;20.80;9.30;;;;;;;8.53;100.00;101735.84;4947581;28;20101;-65
2021/09/23 00:57:47;;;;;;;16.83;9.88;;;;;;;8.49;100.00;101731.78;4940150;28;20043;-65
2021/09/23 01:00:17;;;;;;;18.83;9.38;;;;;;;8.43;100.00;101741.09;4944169;28;20054;-65
2021/09/23 01:02:45;;;;;;;18.42;10.20;;;;;;;8.35;100.00;101745.34;4951158;28;20054;-65
2021/09/23 01:05:14;;;;;;;28.77;12.60;;;;;;;8.53;100.00;101740.34;4942811;28;20065;-64
2021/09/23 01:07:46;;;;;;;26.35;12.98;;;;;;;8.88;100.00;101731.25;4943576;28;20055;-64
2021/09/23 01:10:15;;;;;;;31.33;15.25;;;;;;;9.13;100.00;101719.34;4943636;28;20050;-65
2021/09/23 01:12:45;;;;;;;31.67;13.05;;;;;;;9.31;100.00;101708.88;4945255;28;20455;-65
2021/09/23 01:15:15;;;;;;;33.13;14.48;;;;;;;9.33;100.00;101703.44;4939728;28;20043;-64
2021/09/23 01:17:45;;;;;;;35.03;16.45;;;;;;;9.36;100.00;101697.84;4945957;28;20047;-65
2021/09/23 01:20:13;;;;;;;34.63;14.30;;;;;;;9.43;100.00;101686.50;4943779;28;20046;-64
2021/09/23 01:22:43;;;;;;;25.20;13.20;;;;;;;9.45;100.00;101681.03;4946082;28;20059;-64
2021/09/23 01:25:14;;;;;;;23.45;11.90;;;;;;;9.35;100.00;101688.16;4941503;28;20043;-65
2021/09/23 01:27:42;;;;;;;21.80;11.23;;;;;;;9.02;100.00;101696.28;4947550;28;20080;-65
2021/09/23 01:30:12;;;;;;;19.60;10.90;;;;;;;8.86;100.00;101691.41;4941455;28;20047;-65
2021/09/23 01:32:40;;;;;;;28.08;11.60;;;;;;;8.74;100.00;101674.63;4942897;28;20074;-65
2021/09/23 01:35:09;;;;;;;24.27;12.77;;;;;;;8.89;100.00;101677.81;4940931;28;20390;-65
2021/09/23 01:37:37;;;;;;;25.38;12.50;;;;;;;8.87;100.00;101681.59;4947404;28;20035;-65
2021/09/23 01:40:08;;;;;;;25.48;13.00;;;;;;;8.56;100.00;101679.72;4948799;28;20466;-64
2021/09/23 01:42:36;;;;;;;22.45;11.55;;;;;;;8.26;100.00;101681.28;4953170;28;20430;-65
2021/09/23 01:45:05;;;;;;;23.95;10.68;;;;;;;8.03;100.00;101674.31;4948950;28;20097;-65
2021/09/23 01:47:34;;;;;;;23.48;9.88;;;;;;;8.00;100.00;101674.59;4947747;28;20047;-65
2021/09/23 01:50:02;;;;;;;21.63;10.05;;;;;;;7.82;100.00;101668.94;4947361;28;20301;-64
2021/09/23 01:52:29;;;;;;;21.73;10.73;;;;;;;7.56;100.00;101675.38;4948796;28;20051;-65
2021/09/23 01:54:57;;;;;;;22.67;10.70;;;;;;;7.62;100.00;101659.91;4947496;28;20365;-65
2021/09/23 01:57:26;;;;;;;27.27;14.85;;;;;;;8.15;100.00;101657.38;4946714;28;20270;-65
2021/09/23 01:59:54;;;;;;;33.75;16.23;;;;;;;8.48;100.00;101660.88;4947751;28;20343;-65
2021/09/23 02:02:22;;;;;;;31.70;14.50;;;;;;;8.27;100.00;101677.63;4946488;28;20490;-65
2021/09/23 02:04:54;;;;;;;30.95;14.85;;;;;;;8.15;100.00;101686.63;4946734;28;20284;-65
2021/09/23 02:07:22;;;;;;;37.42;16.42;;;;;;;8.04;100.00;101673.38;4946812;28;20371;-65
2021/09/23 02:09:50;;;;;;;39.85;19.05;;;;;;;8.31;100.00;101672.91;4949449;28;20055;-64
2021/09/23 02:12:20;;;;;;;40.78;20.33;;;;;;;8.70;100.00;101669.72;4944580;28;20055;-65
2021/09/23 02:14:51;;;;;;;41.53;19.85;;;;;;;8.77;100.00;101662.88;4944976;28;20078;-65
2021/09/23 02:17:18;;;;;;;50.50;20.98;;;;;;;8.83;100.00;101659.72;4947445;28;20043;-65
2021/09/23 02:19:46;;;;;;;46.28;21.08;;;;;;;8.78;100.00;101668.06;4948616;28;20215;-65
2021/09/23 02:22:14;;;;;;;38.53;19.20;;;;;;;8.82;100.00;101663.34;4950068;28;20431;-65
2021/09/23 02:24:42;;;;;;;39.47;19.65;;;;;;;9.00;100.00;101650.28;4946452;28;20105;-65
2021/09/23 02:27:10;;;;;;;39.10;17.27;;;;;;;9.13;100.00;101656.22;4946750;28;20039;-65
2021/09/23 02:29:38;;;;;;;36.95;17.95;;;;;;;9.10;100.00;101655.63;4947668;28;20055;-65
2021/09/23 02:32:08;;;;;;;31.50;15.63;;;;;;;9.10;100.00;101655.63;4950390;28;20096;-65
2021/09/23 02:34:36;;;;;;;34.47;15.07;;;;;;;8.89;100.00;101653.84;4947321;28;20109;-65
2021/09/23 02:37:05;;;;;;;35.45;17.00;;;;;;;8.80;100.00;101651.97;4950217;28;20047;-65
2021/09/23 02:39:34;;;;;;;32.75;15.32;;;;;;;8.78;100.00;101657.44;4947430;28;20051;-65
2021/09/23 02:42:02;;;;;;;33.17;14.23;;;;;;;8.52;100.00;101656.13;4949332;28;20039;-64
2021/09/23 02:44:30;;;;;;;33.85;15.93;;;;;;;8.34;100.00;101661.16;4946810;28;20043;-64
2021/09/23 02:46:58;;;;;;;31.42;15.30;;;;;;;8.31;100.00;101658.72;4945270;28;20386;-64
2021/09/23 02:49:27;;;;;;;34.42;16.52;;;;;;;8.31;100.00;101658.72;4951898;28;20085;-65
2021/09/23 02:51:55;;;;;;;33.30;15.93;;;;;;;8.39;100.00;101651.81;4948521;28;20104;-65
2021/09/23 02:54:22;;;;;;;35.72;15.32;;;;;;;8.61;100.00;101653.53;4950620;28;20363;-65
2021/09/23 02:56:50;;;;;;;44.58;18.38;;;;;;;8.68;100.00;101659.19;4945597;28;20056;-65
2021/09/23 02:59:18;;;;;;;41.20;17.80;;;;;;;8.55;100.00;101659.38;4945969;28;20048;-65
2021/09/23 03:01:46;;;;;;;37.97;17.65;;;;;;;8.47;100.00;101656.50;4950363;28;20090;-65
2021/09/23 03:04:14;;;;;;;37.05;17.05;;;;;;;8.53;100.00;101648.00;4946621;28;20055;-65
2021/09/23 03:06:44;;;;;;;36.53;17.48;;;;;;;8.66;100.00;101647.84;4942362;28;20333;-65
2021/09/23 03:09:12;;;;;;;42.33;19.73;;;;;;;8.65;100.00;101645.28;4948770;28;20047;-65
2021/09/23 03:11:42;;;;;;;41.13;17.15;;;;;;;8.75;100.00;101632.88;4950573;28;20082;-65
2021/09/23 03:14:09;;;;;;;32.53;17.27;;;;;;;8.59;100.00;101626.19;4948548;28;20078;-65
2021/09/23 03:16:38;;;;;;;35.72;17.33;;;;;;;8.48;100.00;101628.94;4941163;28;20054;-65
2021/09/23 03:19:05;;;;;;;40.83;18.30;;;;;;;8.39;100.00;101622.53;4949405;28;20100;-66
2021/09/23 03:21:33;;;;;;;31.77;16.30;;;;;;;8.59;100.00;101631.53;4947028;28;20044;-65
2021/09/23 03:24:03;;;;;;;35.85;16.20;;;;;;;8.42;100.00;101624.06;4948344;28;20213;-65
2021/09/23 03:26:31;;;;;;;36.35;17.50;;;;;;;8.43;100.00;101621.31;4945112;28;20042;-65
2021/09/23 03:28:59;;;;;;;37.60;18.17;;;;;;;8.69;100.00;101612.09;4949060;28;20043;-65
2021/09/23 03:31:27;;;;;;;40.05;18.40;;;;;;;8.54;100.00;101591.13;4947387;28;20336;-65
2021/09/23 03:33:55;;;;;;;38.05;17.83;;;;;;;8.50;100.00;101573.72;4947785;28;20104;-65
2021/09/23 03:36:24;;;;;;;35.38;17.83;;;;;;;8.61;100.00;101571.00;4943917;28;20050;-65
2021/09/23 03:38:55;;;;;;;43.45;17.85;;;;;;;8.92;100.00;101568.34;4949115;28;20046;-65
2021/09/23 03:41:27;;;;;;;33.78;17.88;;;;;;;8.96;100.00;101567.09;4943662;28;20122;-66
2021/09/23 03:43:55;;;;;;;30.33;15.63;;;;;;;8.65;100.00;101570.72;4948225;28;20109;-64
2021/09/23 03:46:23;;;;;;;25.52;13.57;;;;;;;8.12;100.00;101577.78;4948938;28;20398;-65
2021/09/23 03:48:51;;;;;;;27.60;13.15;;;;;;;7.85;100.00;101567.63;4947157;28;20058;-66
2021/09/23 03:51:19;;;;;;;29.05;14.48;;;;;;;7.79;100.00;101558.34;4943942;28;20428;-65
2021/09/23 03:53:48;;;;;;;43.80;18.13;;;;;;;8.71;100.00;101565.72;4948610;28;20128;-65
2021/09/23 03:56:16;;;;;;;48.25;18.80;;;;;;;8.40;100.00;101578.13;4951258;28;20461;-65
2021/09/23 03:58:46;;;;;;;33.47;14.63;;;;;;;8.09;100.00;101575.38;4945305;28;20328;-65
2021/09/23 04:01:14;;;;;;;29.65;14.90;;;;;;;7.87;100.00;101566.53;4954021;28;20554;-65
2021/09/23 04:03:42;;;;;;;32.58;15.27;;;;;;;7.74;100.00;101566.72;4946660;28;20051;-65
2021/09/23 04:06:10;;;;;;;39.72;17.50;;;;;;;8.18;100.00;101589.72;4946599;28;20071;-65
2021/09/23 04:08:38;;;;;;;40.95;17.25;;;;;;;7.95;100.00;101583.66;4953465;28;20043;-65
2021/09/23 04:11:06;;;;;;;40.17;18.65;;;;;;;8.10;100.00;101585.88;4946437;28;20092;-65
2021/09/23 04:13:34;;;;;;;51.60;22.88;;;;;;;8.35;100.00;101580.31;4952846;28;20050;-65
2021/09/23 04:16:04;;;;;;;47.22;21.63;;;;;;;8.58;100.00;101586.41;4941577;28;20063;-65
2021/09/23 04:18:32;;;;;;;51.10;23.05;;;;;;;8.94;100.00;101582.38;4941415;28;20037;-65
2021/09/23 04:21:00;;;;;;;51.65;24.35;;;;;;;9.01;100.00;101592.50;4942249;28;20220;-65
2021/09/23 04:23:28;;;;;;;46.50;23.08;;;;;;;9.23;100.00;101596.81;4941728;28;20489;-65
2021/09/23 04:25:56;;;;;;;51.85;25.08;;;;;;;9.66;100.00;101592.97;4938180;28;20462;-65
2021/09/23 04:28:24;;;;;;;54.53;21.67;;;;;;;9.71;100.00;101584.53;4945408;28;20043;-65
2021/09/23 04:30:52;;;;;;;44.58;20.83;;;;;;;9.85;100.00;101581.44;4943660;28;20055;-65
2021/09/23 04:33:21;;;;;;;42.65;20.50;;;;;;;9.84;100.00;101579.78;4944495;28;20078;-65
2021/09/23 04:35:49;;;;;;;42.38;19.52;;;;;;;9.80;100.00;101589.06;4946699;28;20047;-65
2021/09/23 04:38:18;;;;;;;43.63;19.83;;;;;;;9.77;100.00;101589.34;4939605;28;20043;-66
2021/09/23 04:40:48;;;;;;;41.28;20.83;;;;;;;9.58;100.00;101583.00;4942966;28;20075;-66
2021/09/23 04:43:17;;;;;;;39.17;18.80;;;;;;;9.43;100.00;101571.88;4940754;28;20051;-66
2021/09/23 04:45:44;;;;;;;39.80;18.35;;;;;;;9.48;100.00;101568.78;4939659;28;20055;-66
2021/09/23 04:48:13;;;;;;;39.63;20.23;;;;;;;9.36;100.00;101575.22;4946037;28;20073;-65
2021/09/23 04:50:42;;;;;;;38.83;19.30;;;;;;;9.12;100.00;101590.56;4942392;28;20047;-66
2021/09/23 04:53:10;;;;;;;42.55;19.40;;;;;;;8.93;100.00;101586.03;4945962;28;20051;-65
2021/09/23 04:55:38;;;;;;;47.53;21.00;;;;;;;9.07;100.00;101574.16;4941074;28;20051;-66
2021/09/23 04:58:05;;;;;;;49.70;21.27;;;;;;;9.38;100.00;101567.94;4944457;28;20051;-65
2021/09/23 05:00:33;;;;;;;47.08;23.48;;;;;;;9.30;100.00;101580.13;4941754;28;20043;-65
2021/09/23 05:03:01;;;;;;;46.00;22.00;;;;;;;9.32;100.00;101589.81;4946453;28;20243;-65
2021/09/23 05:05:30;;;;;;;52.05;21.77;;;;;;;9.34;100.00;101598.50;4943202;28;20045;-65
2021/09/23 05:07:59;;;;;;;45.67;21.88;;;;;;;9.27;100.00;101591.06;4942247;28;20319;-65
2021/09/23 05:10:27;;;;;;;45.47;20.92;;;;;;;9.33;100.00;101581.66;4949417;28;20054;-65
2021/09/23 05:12:55;;;;;;;45.78;23.08;;;;;;;9.30;100.00;101576.63;4947405;28;20545;-65
2021/09/23 05:15:23;;;;;;;45.72;22.13;;;;;;;9.26;100.00;101576.03;4942308;28;20036;-65
2021/09/23 05:17:51;;;;;;;36.65;19.90;;;;;;;9.11;100.00;101588.03;4943846;28;20048;-65
2021/09/23 05:20:19;;;;;;;46.15;22.75;;;;;;;9.30;100.00;101588.09;4947879;28;20423;-65
2021/09/23 05:22:47;;;;;;;54.22;24.92;;;;;;;9.35;100.00;101584.19;4946493;28;20035;-65
2021/09/23 05:25:16;;;;;;;49.90;24.90;;;;;;;9.44;100.00;101586.88;4949133;28;20047;-66
2021/09/23 05:27:44;;;;;;;59.65;27.38;;;;;;;9.48;100.00;101584.78;4941266;28;20050;-65
2021/09/23 05:30:13;;;;;;;59.60;27.48;;;;;;;9.69;100.00;101574.00;4947954;28;20456;-65
2021/09/23 05:32:41;;;;;;;67.47;30.70;;;;;;;9.93;100.00;101570.09;4943631;28;20043;-65
2021/09/23 05:35:10;;;;;;;66.45;30.25;;;;;;;10.12;100.00;101567.44;4946685;28;20339;-65
2021/09/23 05:37:38;;;;;;;63.58;28.55;;;;;;;10.00;100.00;101569.38;4945400;28;20074;-65
2021/09/23 05:40:08;;;;;;;61.25;26.85;;;;;;;10.00;100.00;101568.53;4945628;28;20051;-65
2021/09/23 05:42:37;;;;;;;62.90;26.83;;;;;;;9.91;100.00;101556.91;4949360;28;20051;-65
2021/09/23 05:45:08;;;;;;;67.15;29.23;;;;;;;10.15;100.00;101560.97;4950810;28;20055;-65
2021/09/23 05:47:36;;;;;;;67.88;30.15;;;;;;;10.45;100.00;101540.44;4944195;28;20050;-65
2021/09/23 05:50:05;;;;;;;66.63;30.25;;;;;;;10.70;100.00;101543.44;4944870;28;20054;-65
2021/09/23 05:52:33;;;;;;;65.45;30.55;;;;;;;10.72;100.00;101544.09;4950305;28;20046;-66
2021/09/23 05:55:01;;;;;;;60.70;26.23;;;;;;;10.64;100.00;101537.66;4945996;28;20051;-65
2021/09/23 05:57:34;;;;;;;64.75;29.30;;;;;;;10.46;100.00;101545.63;4943831;28;20074;-66
2021/09/23 06:00:07;;;;;;;55.63;25.48;;;;;;;10.30;100.00;101548.84;4948154;28;20043;-65
2021/09/23 06:02:34;;;;;;;60.70;25.92;;;;;;;10.24;100.00;101541.41;4947679;28;20054;-65
2021/09/23 06:05:03;;;;;;;53.75;26.75;;;;;;;10.44;100.00;101536.06;4946623;28;20130;-65
2021/09/23 06:07:31;;;;;;;65.10;28.55;;;;;;;10.51;100.00;101534.50;4944997;28;20051;-65
2021/09/23 06:09:59;;;;;;;54.80;27.30;;;;;;;10.94;100.00;101530.38;4950123;28;20051;-66
2021/09/23 06:12:30;;;;;;;60.28;28.17;;;;;;;11.11;100.00;101535.94;4952817;28;20066;-65
2021/09/23 06:14:58;;;;;;;53.17;26.00;;;;;;;11.42;100.00;101522.25;4948100;28;20100;-65
2021/09/23 06:17:27;;;;;;;50.35;24.17;;;;;;;11.51;100.00;101524.84;4947668;28;20070;-65
2021/09/23 06:19:55;;;;;;;50.50;23.10;;;;;;;11.77;100.00;101523.25;4949006;28;20043;-65
2021/09/23 06:22:24;;;;;;;49.92;22.42;;;;;;;11.85;100.00;101512.59;4945604;28;20047;-65
2021/09/23 06:24:52;;;;;;;44.45;20.45;;;;;;;11.66;100.00;101514.44;4945142;28;20273;-66
2021/09/23 06:27:20;;;;;;;44.42;21.33;;;;;;;11.60;100.00;101514.22;4944918;28;20047;-66
2021/09/23 06:29:49;;;;;;;41.28;20.17;;;;;;;11.97;100.00;101505.22;4949036;28;20476;-66
2021/09/23 06:32:17;;;;;;;42.33;20.30;;;;;;;12.03;100.00;101508.09;4949037;28;20427;-66
2021/09/23 06:34:46;;;;;;;42.38;21.02;;;;;;;12.18;100.00;101503.00;4945730;28;20043;-66
2021/09/23 06:37:34;;;;;;;39.50;19.45;;;;;;;12.16;100.00;101498.81;4943725;28;20051;-66
2021/09/23 06:40:02;;;;;;;40.67;20.30;;;;;;;12.02;100.00;101514.47;4944743;28;20054;-66
2021/09/23 06:42:30;;;;;;;46.50;22.42;;;;;;;11.87;100.00;101518.66;4949677;28;20121;-65
2021/09/23 06:44:58;;;;;;;41.67;21.83;;;;;;;11.92;100.00;101528.88;4946206;28;20051;-66
2021/09/23 06:47:26;;;;;;;39.85;20.73;;;;;;;12.14;100.00;101525.75;4941910;28;20047;-66
2021/09/23 06:49:55;;;;;;;46.58;21.52;;;;;;;12.01;100.00;101515.44;4948181;28;20051;-65
2021/09/23 06:52:23;;;;;;;45.28;22.35;;;;;;;12.17;100.00;101521.91;4953453;28;20054;-66
2021/09/23 06:54:51;;;;;;;43.53;20.08;;;;;;;12.20;100.00;101518.91;4943221;28;20047;-67
2021/09/23 06:57:19;;;;;;;39.45;22.42;;;;;;;12.36;100.00;101516.38;4950072;28;20077;-66
2021/09/23 06:59:47;;;;;;;41.42;20.70;;;;;;;12.65;100.00;101525.91;4948582;28;20077;-66
2021/09/23 07:02:15;;;;;;;43.08;20.48;;;;;;;12.51;100.00;101519.28;4945082;28;20085;-66
2021/09/23 07:04:43;;;;;;;42.08;19.95;;;;;;;12.50;100.00;101522.97;4947775;28;20039;-66
2021/09/23 07:07:13;;;;;;;45.03;20.65;;;;;;;12.49;100.00;101515.06;4947601;28;20101;-66
2021/09/23 07:09:41;;;;;;;36.63;19.30;;;;;;;12.97;100.00;101505.63;4951720;28;20044;-66
2021/09/23 07:12:10;;;;;;;41.45;20.85;;;;;;;12.79;100.00;101504.88;4947398;28;20335;-66
2021/09/23 07:14:38;;;;;;;41.20;19.38;;;;;;;12.95;100.00;101504.91;4944420;28;20051;-66
2021/09/23 07:17:06;;;;;;;41.97;21.98;;;;;;;12.98;100.00;101501.06;4944931;28;20569;-67
2021/09/23 07:19:33;;;;;;;37.67;20.50;;;;;;;12.92;100.00;101510.59;4950442;28;20043;-66
2021/09/23 07:22:03;;;;;;;44.83;20.42;;;;;;;12.97;100.00;101527.06;4949650;28;20051;-66
2021/09/23 07:24:33;;;;;;;44.40;21.73;;;;;;;13.03;100.00;101518.34;4948886;28;20668;-66
2021/09/23 07:27:00;;;;;;;36.63;19.58;;;;;;;13.08;100.00;101510.69;4942347;28;20080;-65
2021/09/23 07:29:28;;;;;;;34.47;19.25;;;;;;;13.45;100.00;101518.50;4950551;28;20088;-65
2021/09/23 07:31:56;;;;;;;38.40;18.77;;;;;;;13.32;100.00;101516.25;4943134;28;20047;-66
2021/09/23 07:34:24;;;;;;;42.75;21.23;;;;;;;13.09;100.00;101512.34;4949944;28;20047;-66
2021/09/23 07:36:52;;;;;;;38.28;18.00;;;;;;;13.40;100.00;101509.09;4946884;28;20059;-66
2021/09/23 07:39:20;;;;;;;39.88;19.45;;;;;;;13.09;100.00;101508.81;4945304;28;20066;-66
2021/09/23 07:41:50;;;;;;;38.15;20.63;;;;;;;12.98;100.00;101509.94;4949382;28;20603;-65
2021/09/23 07:44:20;;;;;;;42.80;19.83;;;;;;;13.12;100.00;101504.97;4944572;28;20332;-65
2021/09/23 07:46:49;;;;;;;39.47;19.77;;;;;;;13.31;100.00;101507.38;4942658;28;20085;-65
2021/09/23 07:49:17;;;;;;;43.03;19.85;;;;;;;13.30;100.00;101505.69;4947160;28;20040;-65
2021/09/23 07:51:45;;;;;;;40.08;20.45;;;;;;;13.36;100.00;101507.75;4944187;28;20050;-65
2021/09/23 07:54:13;;;;;;;42.65;21.35;;;;;;;13.42;100.00;101512.47;4948023;28;20535;-65
2021/09/23 07:56:41;;;;;;;39.97;21.70;;;;;;;13.72;100.00;101502.09;4945626;28;20046;-66
2021/09/23 07:59:10;;;;;;;42.33;20.10;;;;;;;14.07;100.00;101493.84;4953534;28;20047;-65
2021/09/23 08:01:38;;;;;;;44.05;18.98;;;;;;;14.83;100.00;101493.50;4942243;28;20373;-65
2021/09/23 08:04:07;;;;;;;33.10;18.40;;;;;;;14.83;100.00;101478.22;4943490;28;20059;-65
2021/09/23 08:06:35;;;;;;;41.83;19.10;;;;;;;15.13;100.00;101478.41;4943933;28;20044;-65
2021/09/23 08:09:03;;;;;;;34.08;18.67;;;;;;;15.47;100.00;101472.63;4945273;28;20378;-65
2021/09/23 08:11:31;;;;;;;35.30;18.67;;;;;;;15.58;100.00;101465.13;4944785;28;20039;-66
2021/09/23 08:13:59;;;;;;;32.28;18.23;;;;;;;15.28;100.00;101465.00;4947091;28;20059;-65
2021/09/23 08:16:28;;;;;;;35.15;19.50;;;;;;;15.04;100.00;101464.19;4944483;28;20047;-65
2021/09/23 08:18:56;;;;;;;35.58;19.27;;;;;;;14.99;100.00;101455.78;4943925;28;20418;-65
2021/09/23 08:21:24;;;;;;;32.38;18.75;;;;;;;15.31;100.00;101456.63;4946477;28;20035;-65
2021/09/23 08:23:52;;;;;;;34.90;18.33;;;;;;;14.83;100.00;101453.16;4944518;28;20074;-66
2021/09/23 08:26:23;;;;;;;38.25;19.55;;;;;;;14.52;100.00;101451.28;4946759;28;20047;-65
2021/09/23 08:28:52;;;;;;;37.63;20.52;;;;;;;14.34;100.00;101443.44;4948798;28;20072;-65
2021/09/23 08:31:21;;;;;;;36.45;19.98;;;;;;;14.49;100.00;101447.09;4940832;28;20097;-65
2021/09/23 08:33:51;;;;;;;41.10;20.70;;;;;;;15.10;100.00;101441.09;4943921;28;20061;-65
2021/09/23 08:36:19;;;;;;;38.15;20.00;;;;;;;15.23;100.00;101435.97;4935390;28;20351;-65
2021/09/23 08:38:47;;;;;;;38.10;19.73;;;;;;;14.63;100.00;101437.50;4943046;28;20390;-65
2021/09/23 08:41:15;;;;;;;37.78;19.85;;;;;;;14.66;100.00;101437.13;4945420;28;20089;-65
2021/09/23 08:43:44;;;;;;;36.55;17.80;;;;;;;15.15;100.00;101439.56;4943559;28;20352;-65
2021/09/23 08:46:12;;;;;;;36.70;17.90;;;;;;;15.40;100.00;101431.28;4943428;28;20415;-65
2021/09/23 08:48:40;;;;;;;33.85;19.05;;;;;;;15.35;100.00;101436.38;4943921;28;20157;-65
2021/09/23 08:51:09;;;;;;;38.95;18.63;;;;;;;15.60;100.00;101423.56;4944632;28;20371;-66
2021/09/23 08:53:39;;;;;;;35.50;20.23;;;;;;;15.87;100.00;101429.41;4941597;28;20051;-66
2021/09/23 08:56:12;;;;;;;32.97;18.27;;;;;;;16.50;100.00;101416.44;4945352;28;20065;-65
2021/09/23 08:58:39;;;;;;;31.35;16.73;;;;;;;15.93;100.00;101409.81;4943827;28;20100;-65
2021/09/23 09:01:09;;;;;;;30.90;16.98;;;;;;;16.33;100.00;101417.63;4946369;28;20316;-65
2021/09/23 09:03:38;;;;;;;30.25;17.98;;;;;;;17.10;100.00;101423.56;4946425;28;20101;-65
2021/09/23 09:06:11;;;;;;;27.25;14.35;;;;;;;17.03;100.00;101424.31;4941951;28;20463;-65
2021/09/23 09:08:40;;;;;;;23.55;14.73;;;;;;;17.41;100.00;101414.31;4938428;28;20067;-65
2021/09/23 09:11:11;;;;;;;25.25;13.27;;;;;;;17.72;100.00;101406.69;4944765;28;20390;-66
2021/09/23 09:13:41;;;;;;;26.65;13.35;;;;;;;16.46;100.00;101422.38;4939841;28;20427;-65
2021/09/23 09:16:10;;;;;;;21.65;11.93;;;;;;;17.27;100.00;101416.88;4940615;28;20051;-65
2021/09/23 09:18:39;;;;;;;21.27;12.23;;;;;;;17.44;100.00;101403.97;4939767;28;20048;-66
2021/09/23 09:21:11;;;;;;;20.02;12.30;;;;;;;17.46;100.00;101420.78;4949646;28;20039;-65
2021/09/23 09:23:41;;;;;;;25.08;13.05;;;;;;;16.76;100.00;101420.47;4946327;28;20457;-65
2021/09/23 09:26:10;;;;;;;22.38;11.73;;;;;;;17.52;100.00;101419.19;4945326;28;20051;-65
2021/09/23 09:28:48;;;;;;;24.30;12.95;;;;;;;16.38;100.00;101422.47;4944484;28;20047;-66
2021/09/23 09:31:17;;;;;;;19.63;11.20;;;;;;;17.52;100.00;101420.03;4946226;28;20050;-66
2021/09/23 09:33:48;;;;;;;22.27;12.10;;;;;;;17.13;100.00;101407.81;4946298;28;20332;-66
2021/09/23 09:36:30;;;;;;;24.52;12.93;;;;;;;17.69;100.00;101400.81;4943343;28;20056;-66
2021/09/23 09:39:00;;;;;;;19.70;11.25;;;;;;;17.81;100.00;101396.56;4943436;28;20491;-66
2021/09/23 09:41:29;;;;;;;20.05;12.35;;;;;;;18.19;100.00;101387.28;4945864;28;20062;-66
2021/09/23 09:43:59;;;;;;;18.77;11.55;;;;;;;18.70;100.00;101383.34;4941991;28;20047;-66
2021/09/23 09:46:28;;;;;;;21.20;11.95;;;;;;;18.29;100.00;101376.94;4940644;28;20051;-66
2021/09/23 09:48:58;;;;;;;18.88;11.40;;;;;;;17.41;100.00;101376.50;4943568;28;20089;-66
2021/09/23 09:51:38;;;;;;;18.45;10.80;;;;;;;17.90;100.00;101383.72;4942713;28;20035;-66
2021/09/23 09:54:07;;;;;;;21.38;10.30;;;;;;;17.58;100.00;101390.56;4948838;28;20418;-66
2021/09/23 09:56:35;;;;;;;19.40;9.75;;;;;;;17.73;100.00;101399.41;4945755;28;20047;-66
2021/09/23 09:59:21;;;;;;;20.60;10.38;;;;;;;18.78;100.00;101407.47;4941104;28;21168;-65
2021/09/23 10:01:50;;;;;;;21.85;10.55;;;;;;;19.36;100.00;101398.03;4948321;28;20188;-65
2021/09/23 10:04:20;;;;;;;21.48;9.25;;;;;;;18.53;100.00;101405.31;4946037;28;20039;-66
2021/09/23 10:06:49;;;;;;;16.67;8.63;;;;;;;17.42;100.00;101395.22;4950662;28;20081;-66
2021/09/23 10:09:18;;;;;;;17.38;7.15;;;;;;;18.10;100.00;101394.69;4949282;28;20089;-66
2021/09/23 10:11:48;;;;;;;11.85;7.18;;;;;;;18.18;100.00;101380.19;4949211;28;20110;-66
2021/09/23 10:14:18;;;;;;;11.63;6.45;;;;;;;18.67;100.00;101389.13;4949858;28;20043;-66
2021/09/23 10:16:47;;;;;;;12.43;6.90;;;;;;;18.58;100.00;101386.63;4942360;28;20055;-65
2021/09/23 10:19:15;;;;;;;10.75;6.78;;;;;;;18.92;100.00;101379.47;4943701;28;20051;-65
2021/09/23 10:21:43;;;;;;;12.73;6.43;;;;;;;19.23;100.00;101394.28;4951117;28;20130;-65
2021/09/23 10:24:13;;;;;;;9.00;5.60;;;;;;;19.01;100.00;101395.50;4948258;28;20078;-64
2021/09/23 10:26:44;;;;;;;13.38;6.88;;;;;;;18.36;100.00;101393.19;4947324;28;20113;-65
2021/09/23 10:29:13;;;;;;;11.48;6.65;;;;;;;18.62;100.00;101388.91;4951756;28;20066;-66
2021/09/23 10:31:43;;;;;;;11.85;6.70;;;;;;;18.38;100.00;101399.22;4953167;28;20082;-66
2021/09/23 10:34:12;;;;;;;10.98;5.60;;;;;;;19.72;100.00;101396.81;4948894;28;20055;-65
2021/09/23 10:36:43;;;;;;;12.13;6.90;;;;;;;18.88;100.00;101391.72;4946588;28;20334;-66
2021/09/23 10:39:13;;;;;;;12.75;6.25;;;;;;;18.41;100.00;101394.25;4950162;28;20417;-66
2021/09/23 10:41:42;;;;;;;12.07;6.93;;;;;;;18.40;100.00;101389.88;4953104;28;20093;-65
2021/09/23 10:44:12;;;;;;;10.90;6.47;;;;;;;18.58;100.00;101385.78;4948799;28;20055;-66
2021/09/23 10:46:41;;;;;;;15.35;7.78;;;;;;;18.22;100.00;101392.28;4946659;28;20348;-66
2021/09/23 10:49:10;;;;;;;14.65;7.65;;;;;;;18.66;100.00;101382.06;4953609;28;20059;-65
2021/09/23 10:51:39;;;;;;;13.50;7.18;;;;;;;18.66;100.00;101398.28;4947751;28;20061;-65
2021/09/23 10:54:09;;;;;;;14.02;7.43;;;;;;;18.72;100.00;101387.47;4946710;28;20309;-65
2021/09/23 10:56:40;;;;;;;12.18;7.70;;;;;;;18.27;100.00;101394.38;4951799;28;20051;-65
2021/09/23 10:59:08;;;;;;;11.65;7.95;;;;;;;18.82;100.00;101397.91;4947064;28;20047;-65
2021/09/23 11:01:37;;;;;;;13.20;7.75;;;;;;;18.78;100.00;101391.25;4950449;28;20065;-66
2021/09/23 11:04:25;;;;;;;14.07;7.97;;;;;;;19.02;100.00;101387.16;4949247;28;20128;-67
2021/09/23 11:06:58;;;;;;;14.73;8.63;;;;;;;18.76;100.00;101398.75;4951172;28;20039;-67
2021/09/23 11:09:28;;;;;;;12.80;7.97;;;;;;;18.92;100.00;101392.16;4946353;28;20047;-67
2021/09/23 11:11:58;;;;;;;13.65;8.45;;;;;;;18.03;100.00;101391.97;4948466;28;20066;-67
2021/09/23 11:14:28;;;;;;;13.80;8.57;;;;;;;17.65;100.00;101391.44;4947270;28;20078;-67